»·PEaware :: N348WT KSBA-KPSP

N348WT :: KSBA-KPSP

FLIGHT INFORMATION

Flight Status: Arrived
Operator: Privately registered:
United States
More flights under this callsign
Pilot: Gerald G. (23948)
Aircraft: SOCATA TBM-900
(TBM9)
More flights by this aircraft type
Origin: KSBA Santa Barbara Mun
United States
Destination: KPSP Palm Springs Intl
United States
More flights between these airports :: More routes between these airports
Route: FIM V186 ITSME V264 POM V197 PDZ V186 NIKKL V64 TRM PSP
File this flight plan on PilotEdge
Remarks: TEC route SBAP36
Altitude:
(Current/Filed)
11,000ft
Speed:
(Current/Filed)
250kts
Departed: 02-Jan-21 07:41 PM
Arrived: 02-Jan-21 08:46 PM
Distance/Time
Traveled:
169nm/1:05
Distance/Time
To Go:
Arrived

Flight Plot

Page will automatically refresh every two minutes.


Map Options




Map Legend


Flown Route
Filed Route
Departure Airport
Arrival Airport
Navaid (VOR, NDB)
Fix

Horizontal Profiles

Position Reports

Time Latitude Longitude Heading Altitude Ground
Speed
02-Jan-21 19:19 34.426006 -119.837454 91 18ft 0kts
02-Jan-21 19:20 34.426006 -119.837454 91 18ft 0kts
02-Jan-21 19:21 34.426006 -119.837454 91 18ft 0kts
02-Jan-21 19:22 34.426006 -119.837454 91 18ft 0kts
02-Jan-21 19:23 34.426006 -119.837454 91 18ft 0kts
02-Jan-21 19:24 34.426006 -119.837454 91 18ft 0kts
02-Jan-21 19:25 34.426006 -119.837454 91 18ft 0kts
02-Jan-21 19:26 34.426006 -119.837454 91 18ft 0kts
02-Jan-21 19:27 34.426006 -119.837454 91 18ft 0kts
02-Jan-21 19:28 34.426006 -119.837454 91 18ft 0kts
02-Jan-21 19:29 34.426006 -119.837454 91 18ft 0kts
02-Jan-21 19:30 34.426006 -119.837454 91 18ft 0kts
02-Jan-21 19:31 34.426006 -119.837454 91 18ft 0kts
02-Jan-21 19:32 34.426006 -119.837454 91 18ft 0kts
02-Jan-21 19:33 34.426006 -119.837454 91 18ft 0kts
02-Jan-21 19:34 34.426006 -119.837454 91 18ft 0kts
02-Jan-21 19:35 34.426006 -119.837454 91 18ft 0kts
02-Jan-21 19:37 34.426158 -119.836540 45 18ft 9kts
02-Jan-21 19:37 34.426980 -119.834562 28 16ft 0kts
02-Jan-21 19:38 34.426980 -119.834562 28 16ft 0kts
02-Jan-21 19:39 34.426980 -119.834562 28 16ft 0kts
02-Jan-21 19:40 34.427344 -119.848436 268 81ft 110kts
02-Jan-21 19:41 34.424545 -119.893715 263 1025ft 164kts
02-Jan-21 19:42 34.396513 -119.923447 156 1764ft 178kts
02-Jan-21 19:43 34.355442 -119.897981 153 3598ft 170kts
02-Jan-21 19:44 34.310969 -119.869245 153 5130ft 186kts
02-Jan-21 19:45 34.263873 -119.838806 153 6509ft 203kts
02-Jan-21 19:46 34.206935 -119.802429 153 6718ft 254kts
02-Jan-21 19:47 34.154659 -119.753550 93 8033ft 239kts
02-Jan-21 19:48 34.186855 -119.686057 65 9503ft 243kts
02-Jan-21 19:49 34.207086 -119.605111 75 10418ft 259kts
02-Jan-21 19:50 34.225041 -119.518957 75 10700ft 268kts
02-Jan-21 19:51 34.243216 -119.430939 75 10712ft 270kts
02-Jan-21 19:52 34.261217 -119.343916 75 10710ft 262kts
02-Jan-21 19:53 34.278976 -119.257870 75 10717ft 273kts
02-Jan-21 19:54 34.297750 -119.166957 75 10714ft 283kts
02-Jan-21 19:55 34.316901 -119.074192 75 10722ft 285kts
02-Jan-21 19:56 34.336030 -118.981503 75 10707ft 285kts
02-Jan-21 19:57 34.353245 -118.888028 95 10713ft 286kts
02-Jan-21 19:58 34.326149 -118.798138 112 10714ft 285kts
02-Jan-21 19:59 34.295867 -118.709629 112 10714ft 285kts
02-Jan-21 20:00 34.265487 -118.621216 113 10713ft 285kts
02-Jan-21 20:01 34.235663 -118.534380 112 10712ft 285kts
02-Jan-21 20:02 34.205745 -118.447153 112 10446ft 270kts
02-Jan-21 20:03 34.180438 -118.372901 112 9010ft 223kts
02-Jan-21 20:04 34.156510 -118.302921 113 7611ft 239kts
02-Jan-21 20:05 34.130218 -118.226307 112 6947ft 257kts
02-Jan-21 20:06 34.118030 -118.143913 108 6734ft 253kts
02-Jan-21 20:07 34.093780 -118.066111 110 6723ft 250kts
02-Jan-21 20:08 34.079422 -117.985214 91 6723ft 250kts
02-Jan-21 20:09 34.078653 -117.903179 93 6739ft 250kts
02-Jan-21 20:10 34.077789 -117.819204 91 6747ft 253kts
02-Jan-21 20:11 34.050575 -117.743605 121 6745ft 252kts
02-Jan-21 20:12 34.009857 -117.676762 127 6741ft 252kts
02-Jan-21 20:13 33.968145 -117.609826 127 6740ft 252kts
02-Jan-21 20:14 33.925381 -117.543664 135 7009ft 240kts
02-Jan-21 20:16 33.876238 -117.494816 147 8808ft 226kts
02-Jan-21 20:17 33.824045 -117.450936 146 10196ft 242kts
02-Jan-21 20:18 33.766464 -117.402703 146 10715ft 267kts
02-Jan-21 20:19 33.728392 -117.326800 103 10746ft 281kts
02-Jan-21 20:20 33.719724 -117.232926 94 10745ft 284kts
02-Jan-21 20:21 33.711968 -117.138556 95 10739ft 286kts
02-Jan-21 20:22 33.704162 -117.043412 95 10739ft 286kts
02-Jan-21 20:23 33.696256 -116.948038 95 10745ft 288kts
02-Jan-21 20:24 33.688288 -116.852777 95 10743ft 288kts
02-Jan-21 20:25 33.680161 -116.756692 95 10740ft 288kts
02-Jan-21 20:26 33.681246 -116.662688 82 10733ft 272kts
02-Jan-21 20:27 33.690673 -116.575366 82 10744ft 260kts
02-Jan-21 20:28 33.700029 -116.490100 82 10109ft 249kts
02-Jan-21 20:28 33.707351 -116.423509 82 9097ft 245kts
02-Jan-21 20:30 33.717767 -116.328433 82 8751ft 242kts
02-Jan-21 20:31 33.707146 -116.250574 102 8741ft 238kts
02-Jan-21 20:32 33.693553 -116.173031 102 8742ft 236kts
02-Jan-21 20:32 33.682671 -116.110416 102 8740ft 220kts
02-Jan-21 20:33 33.666721 -116.038052 121 7803ft 240kts
02-Jan-21 20:34 33.619520 -116.049391 260 6250ft 221kts
02-Jan-21 20:35 33.627150 -116.120362 281 4902ft 204kts
02-Jan-21 20:36 33.636465 -116.181867 279 4736ft 176kts
02-Jan-21 20:37 33.645203 -116.240111 281 4743ft 177kts
02-Jan-21 20:38 33.659563 -116.297647 289 4599ft 187kts
02-Jan-21 20:39 33.679013 -116.357972 295 3898ft 201kts
02-Jan-21 20:40 33.720938 -116.402595 321 3055ft 207kts
02-Jan-21 20:41 33.761062 -116.439609 321 2632ft 143kts
02-Jan-21 20:42 33.782136 -116.462811 315 1857ft 94kts
02-Jan-21 20:43 33.802119 -116.483059 320 980ft 97kts
02-Jan-21 20:44 33.822123 -116.501023 321 408ft 66kts
02-Jan-21 20:45 33.828648 -116.507939 280 436ft 8kts
02-Jan-21 20:46 33.828565 -116.509798 273 439ft 0kts

Navigation Log

Ident Type
Flight plan parsing failed, navigation log unavailable